createdAt,value
2023-04-15T00:00:02.125Z,12.92
2023-04-15T00:15:01.844Z,12.75
2023-04-15T00:30:01.579Z,12.55
2023-04-15T00:45:02.220Z,12.6
2023-04-15T01:00:01.893Z,12.58
2023-04-15T01:15:01.581Z,12.42
2023-04-15T01:30:02.320Z,12.17
2023-04-15T01:45:01.966Z,11.76
2023-04-15T02:00:01.645Z,11.43
2023-04-15T02:15:01.410Z,11.39
2023-04-15T02:30:02.186Z,11.31
2023-04-15T02:45:01.989Z,11.13
2023-04-15T03:00:01.700Z,10.83
2023-04-15T03:15:01.372Z,10.62
2023-04-15T03:30:02.095Z,10.49
2023-04-15T03:45:01.766Z,10.41
2023-04-15T04:00:01.524Z,10.25
2023-04-15T04:15:01.192Z,10.14
2023-04-15T04:30:01.853Z,9.64
2023-04-15T04:45:01.463Z,9.44
2023-04-15T05:00:02.087Z,9.85
2023-04-15T05:15:01.654Z,10.29
2023-04-15T05:30:01.341Z,10.81
2023-04-15T05:45:01.973Z,11.17
2023-04-15T06:00:01.620Z,11.69
2023-04-15T06:15:01.297Z,12.36
2023-04-15T06:30:01.953Z,13.23
2023-04-15T06:45:01.540Z,13.82
2023-04-15T07:00:01.213Z,14.26
2023-04-15T07:15:01.796Z,14.59
2023-04-15T07:30:01.622Z,14.55
2023-04-15T07:45:01.328Z,14.57
2023-04-15T08:00:02.042Z,14.32
2023-04-15T08:15:01.691Z,14.5
2023-04-15T08:30:04.207Z,14.65
2023-04-15T08:45:01.597Z,14.44
2023-04-15T09:00:03.689Z,14.15
2023-04-15T09:15:01.415Z,14.81
2023-04-15T09:30:01.081Z,14.72
2023-04-15T09:45:01.930Z,14.79
2023-04-15T10:00:01.553Z,15.02
2023-04-15T10:15:02.472Z,14.89
2023-04-15T10:30:02.126Z,14.9
2023-04-15T10:45:01.765Z,14.74
2023-04-15T11:00:02.356Z,14.7
2023-04-15T11:15:01.966Z,14.5
2023-04-15T11:30:01.670Z,14.49
2023-04-15T11:45:02.300Z,13.98
2023-04-15T12:00:01.897Z,13.74
2023-04-15T12:15:01.494Z,13.79
2023-04-15T12:30:02.224Z,13.63
2023-04-15T12:45:01.814Z,13.5
2023-04-15T13:00:01.403Z,13.48
2023-04-15T13:15:03.716Z,13.18
2023-04-15T13:30:01.748Z,13.07
2023-04-15T13:45:01.353Z,13.02
2023-04-15T14:00:01.994Z,13.22
2023-04-15T14:15:01.697Z,13.12
2023-04-15T14:30:01.366Z,13.34
2023-04-15T14:45:02.062Z,13.41
2023-04-15T15:00:01.902Z,13.52
2023-04-15T15:15:03.011Z,13.46
2023-04-15T15:30:01.497Z,13.41
2023-04-15T15:45:02.192Z,13.49
2023-04-15T16:15:01.454Z,13.9
2023-04-15T16:30:02.174Z,14.17
2023-04-15T16:45:01.825Z,14.26
2023-04-15T17:00:01.480Z,14.27
2023-04-15T17:15:02.130Z,14.33
2023-04-15T17:30:01.846Z,14.42
2023-04-15T17:45:01.618Z,14.42
2023-04-15T18:00:01.377Z,14.35
2023-04-15T18:15:02.460Z,14.22
2023-04-15T18:30:02.377Z,14.1
2023-04-15T18:45:02.051Z,14.1
2023-04-15T19:00:02.359Z,14.04
2023-04-15T19:15:02.038Z,14.37
2023-04-15T19:30:01.931Z,14.52
2023-04-15T19:45:01.737Z,14.59
2023-04-15T20:00:02.454Z,14.78
2023-04-15T20:15:02.178Z,14.88
2023-04-15T20:30:01.861Z,14.96
2023-04-15T20:45:01.561Z,15.04
2023-04-15T21:00:02.222Z,15.1
2023-04-15T21:15:01.898Z,15.09
2023-04-15T21:30:01.641Z,15.13
2023-04-15T21:45:02.310Z,15.31
2023-04-15T22:00:01.969Z,15.43
2023-04-15T22:15:01.698Z,15.19
2023-04-15T22:30:01.468Z,15.46
2023-04-15T22:45:02.194Z,15.38
2023-04-15T23:00:01.961Z,15.29
2023-04-15T23:15:01.680Z,15.06
2023-04-15T23:30:01.408Z,15.19
2023-04-15T23:45:02.150Z,15.37
